Time;durP1;ratioP1;P1;durP2;ratioP2;P2;SDS_P1;SDS_P2;PMS_P1;PMS_P2;Temp;Humidity;BMP_temperature;BMP_pressure;BME280_temperature;BME280_humidity;BME280_pressure;Samples;Min_cycle;Max_cycle;Signal;HPM_P1;HPM_P2
2022/08/28 00:00:34;;;;;;;7.45;2.40;;;18.40;99.90;;;;;;5051734;28;20377;-62
2022/08/28 00:03:00;;;;;;;8.27;2.03;;;18.40;99.90;;;;;;5051855;28;20396;-62
2022/08/28 00:05:29;;;;;;;7.65;2.70;;;18.50;99.90;;;;;;5051541;28;20440;-61
2022/08/28 00:07:56;;;;;;;7.70;2.30;;;18.50;99.90;;;;;;5051817;28;20413;-62
2022/08/28 00:10:22;;;;;;;5.43;2.00;;;18.50;99.90;;;;;;5052015;28;20433;-62
2022/08/28 00:12:50;;;;;;;9.13;2.58;;;18.50;99.90;;;;;;5051551;28;20033;-61
2022/08/28 00:15:22;;;;;;;5.18;2.20;;;18.60;99.90;;;;;;5051617;28;20536;-61
2022/08/28 00:17:48;;;;;;;12.00;2.08;;;18.60;99.90;;;;;;5051593;28;20029;-62
2022/08/28 00:20:17;;;;;;;6.93;2.38;;;18.60;99.90;;;;;;5051520;28;20389;-62
2022/08/28 00:22:43;;;;;;;4.93;2.00;;;18.60;99.90;;;;;;5050053;28;20581;-62
2022/08/28 00:25:12;;;;;;;10.57;2.60;;;18.60;99.90;;;;;;5051560;28;20067;-62
2022/08/28 00:27:52;;;;;;;7.78;2.60;;;18.60;99.90;;;;;;5051567;28;20112;-61
2022/08/28 00:30:23;;;;;;;8.40;2.60;;;18.60;99.90;;;;;;5051416;28;20028;-62
2022/08/28 00:32:49;;;;;;;8.00;2.55;;;18.50;99.90;;;;;;5051055;28;20037;-61
2022/08/28 00:35:16;;;;;;;6.22;2.75;;;18.50;99.90;;;;;;5051203;28;20112;-61
2022/08/28 00:37:42;;;;;;;10.43;2.63;;;18.50;99.90;;;;;;5051248;28;20025;-60
2022/08/28 00:40:09;;;;;;;9.02;2.67;;;18.60;99.90;;;;;;5051287;28;20029;-60
2022/08/28 00:42:37;;;;;;;9.63;2.28;;;18.60;99.90;;;;;;5051472;28;20029;-61
2022/08/28 00:45:04;;;;;;;9.55;2.45;;;18.60;99.90;;;;;;5051501;28;20017;-63
2022/08/28 00:47:29;;;;;;;5.32;2.30;;;18.60;99.90;;;;;;5050905;28;20452;-61
2022/08/28 00:49:55;;;;;;;8.43;2.45;;;18.60;99.90;;;;;;5051075;28;20107;-60
2022/08/28 00:52:25;;;;;;;7.35;2.22;;;18.60;99.90;;;;;;5049816;28;20037;-61
2022/08/28 00:54:56;;;;;;;15.70;2.33;;;18.60;99.90;;;;;;5051012;28;20031;-61
2022/08/28 00:57:25;;;;;;;11.25;2.33;;;18.60;99.90;;;;;;5051161;28;20028;-61
2022/08/28 00:59:51;;;;;;;5.80;2.20;;;18.60;99.90;;;;;;5051034;28;20041;-61
2022/08/28 01:02:17;;;;;;;6.30;2.05;;;18.60;99.90;;;;;;5050759;28;20021;-62
2022/08/28 01:04:44;;;;;;;7.65;2.00;;;18.50;99.90;;;;;;5050800;28;20096;-62
2022/08/28 01:07:13;;;;;;;10.27;2.85;;;18.60;99.90;;;;;;5050771;28;20040;-61
2022/08/28 01:09:44;;;;;;;5.53;2.75;;;18.60;99.90;;;;;;5050855;28;20036;-61
2022/08/28 01:12:16;;;;;;;8.85;2.08;;;18.60;99.90;;;;;;5050702;28;20107;-62
2022/08/28 01:14:44;;;;;;;8.23;2.30;;;18.70;99.90;;;;;;5050767;28;20025;-60
2022/08/28 01:17:12;;;;;;;7.65;2.65;;;18.60;99.90;;;;;;5050708;28;20490;-61
2022/08/28 01:20:01;;;;;;;5.22;2.28;;;18.50;99.90;;;;;;5050713;28;20873;-61
2022/08/28 01:22:38;;;;;;;9.25;2.47;;;18.60;99.90;;;;;;5049432;28;20037;-61
2022/08/28 01:25:12;;;;;;;10.68;2.90;;;18.60;99.90;;;;;;5050827;28;20029;-60
2022/08/28 01:27:40;;;;;;;7.03;2.30;;;18.60;99.90;;;;;;5050679;28;20025;-62
2022/08/28 01:30:10;;;;;;;5.45;2.30;;;18.60;99.90;;;;;;5050761;28;20029;-61
2022/08/28 01:32:44;;;;;;;6.15;2.60;;;18.60;99.90;;;;;;5049344;28;20029;-61
2022/08/28 01:35:14;;;;;;;9.48;2.22;;;18.50;99.90;;;;;;5050664;28;20033;-61
2022/08/28 01:37:41;;;;;;;7.80;2.38;;;18.50;99.90;;;;;;5049226;28;20402;-61
2022/08/28 01:40:10;;;;;;;8.77;2.50;;;18.50;99.90;;;;;;5050582;28;20029;-60
2022/08/28 01:42:41;;;;;;;8.75;2.40;;;18.50;99.90;;;;;;5050611;28;20504;-61
2022/08/28 01:45:10;;;;;;;8.85;2.72;;;18.50;99.90;;;;;;5050562;28;20021;-61
2022/08/28 01:47:39;;;;;;;8.38;2.90;;;18.60;99.90;;;;;;5050292;28;20068;-61
2022/08/28 01:50:07;;;;;;;9.80;2.50;;;18.50;99.90;;;;;;5049274;28;20036;-61
2022/08/28 01:52:33;;;;;;;9.38;2.47;;;18.50;99.90;;;;;;5050671;28;20146;-60
2022/08/28 01:54:58;;;;;;;10.50;2.83;;;18.60;99.90;;;;;;5050400;28;20437;-61
2022/08/28 01:57:24;;;;;;;8.70;2.97;;;18.50;99.90;;;;;;5050356;28;20104;-60
2022/08/28 01:59:50;;;;;;;8.02;2.65;;;18.50;99.90;;;;;;5050583;28;20497;-61
2022/08/28 02:02:16;;;;;;;7.45;2.85;;;18.40;99.90;;;;;;5050087;28;20032;-60
2022/08/28 02:04:42;;;;;;;10.98;2.80;;;18.40;99.90;;;;;;5050373;28;20044;-60
2022/08/28 02:07:08;;;;;;;11.25;2.97;;;18.30;99.90;;;;;;5050344;28;20052;-60
2022/08/28 02:09:34;;;;;;;8.13;2.88;;;18.30;99.90;;;;;;5051506;28;20411;-61
2022/08/28 02:12:00;;;;;;;6.22;2.75;;;18.40;99.90;;;;;;5054098;28;20037;-60
2022/08/28 02:14:26;;;;;;;8.95;3.22;;;18.40;99.90;;;;;;5053620;28;20120;-60
2022/08/28 02:16:52;;;;;;;6.90;2.75;;;18.30;99.90;;;;;;5053721;28;20104;-61
2022/08/28 02:19:19;;;;;;;9.38;2.80;;;18.40;99.90;;;;;;5053839;28;20075;-61
2022/08/28 02:21:45;;;;;;;7.22;2.83;;;18.40;99.90;;;;;;5053832;28;20028;-61
2022/08/28 02:24:11;;;;;;;11.23;2.80;;;18.50;99.90;;;;;;5053847;28;20025;-61
2022/08/28 02:26:37;;;;;;;10.10;3.05;;;18.50;99.90;;;;;;5053655;28;20013;-61
2022/08/28 02:29:03;;;;;;;9.00;2.83;;;18.40;99.90;;;;;;5053867;28;20036;-61
2022/08/28 02:31:29;;;;;;;8.45;3.00;;;18.40;99.90;;;;;;5053920;28;20363;-61
2022/08/28 02:33:55;;;;;;;8.00;3.25;;;18.40;99.90;;;;;;5053323;28;20021;-61
2022/08/28 02:36:22;;;;;;;8.68;3.08;;;18.30;99.90;;;;;;5053354;28;20037;-62
2022/08/28 02:38:49;;;;;;;10.73;3.45;;;18.40;99.90;;;;;;5053650;28;20025;-61
2022/08/28 02:41:14;;;;;;;11.27;3.30;;;18.50;99.90;;;;;;5052950;28;20040;-61
2022/08/28 02:43:40;;;;;;;10.15;3.20;;;18.40;99.90;;;;;;5053206;28;20025;-62
2022/08/28 02:46:06;;;;;;;10.55;3.33;;;18.40;99.90;;;;;;5052961;28;20044;-62
2022/08/28 02:48:34;;;;;;;10.20;3.35;;;18.40;99.90;;;;;;5053440;28;20421;-61
2022/08/28 02:51:02;;;;;;;6.97;3.60;;;18.40;99.90;;;;;;5053159;28;20029;-61
2022/08/28 02:53:29;;;;;;;11.77;3.80;;;18.30;99.90;;;;;;5053358;28;20029;-62
2022/08/28 02:55:55;;;;;;;12.10;3.47;;;18.30;99.90;;;;;;5053074;28;20063;-61
2022/08/28 02:58:21;;;;;;;7.07;3.88;;;18.20;99.90;;;;;;5053470;28;20064;-61
2022/08/28 03:00:48;;;;;;;14.63;3.85;;;18.20;99.90;;;;;;5052864;28;20477;-62
2022/08/28 03:03:15;;;;;;;10.20;3.47;;;18.20;99.90;;;;;;5053142;28;20073;-61
2022/08/28 03:05:40;;;;;;;9.52;4.07;;;18.20;99.90;;;;;;5051924;28;20102;-61
2022/08/28 03:08:06;;;;;;;10.35;3.50;;;18.30;99.90;;;;;;5052969;28;20625;-61
2022/08/28 03:10:32;;;;;;;12.98;3.67;;;18.20;99.90;;;;;;5052583;28;20055;-61
2022/08/28 03:12:58;;;;;;;13.65;4.18;;;18.20;99.90;;;;;;5052840;28;20033;-61
2022/08/28 03:15:23;;;;;;;13.25;4.60;;;18.20;99.90;;;;;;5052562;28;20057;-60
2022/08/28 03:17:49;;;;;;;13.57;4.07;;;18.00;99.90;;;;;;5052722;28;20043;-60
2022/08/28 03:20:15;;;;;;;13.32;4.20;;;18.00;99.90;;;;;;5052625;28;20478;-61
2022/08/28 03:25:25;;;;;;;9.93;4.20;;;18.00;99.90;;;;;;5052667;28;20508;-60
2022/08/28 03:27:51;;;;;;;13.05;4.70;;;18.00;99.90;;;;;;5052425;28;20099;-60
2022/08/28 03:30:18;;;;;;;12.82;4.25;;;17.90;99.90;;;;;;5052705;28;20021;-60
2022/08/28 03:32:44;;;;;;;10.15;3.95;;;17.90;99.90;;;;;;5052341;28;20545;-60
2022/08/28 03:35:10;;;;;;;12.88;4.63;;;18.00;99.90;;;;;;5052528;28;20120;-60
2022/08/28 03:37:36;;;;;;;11.35;4.05;;;17.90;99.90;;;;;;5052183;28;20486;-61
2022/08/28 03:40:03;;;;;;;10.98;4.20;;;17.80;99.90;;;;;;5052404;28;20025;-61
2022/08/28 03:42:29;;;;;;;12.95;4.65;;;17.90;99.90;;;;;;5052174;28;20390;-61
2022/08/28 03:44:55;;;;;;;13.43;4.57;;;17.90;99.90;;;;;;5052267;28;20025;-62
2022/08/28 03:47:21;;;;;;;12.23;4.28;;;17.90;99.90;;;;;;5050549;28;20371;-60
2022/08/28 03:49:52;;;;;;;11.88;4.38;;;17.90;99.90;;;;;;5052106;28;20386;-61
2022/08/28 03:52:18;;;;;;;12.27;4.97;;;18.00;99.90;;;;;;5052124;28;20033;-60
2022/08/28 03:54:43;;;;;;;12.73;4.30;;;17.90;99.90;;;;;;5051865;28;20036;-61
2022/08/28 03:57:09;;;;;;;11.00;3.85;;;17.90;99.90;;;;;;5052100;28;20442;-61
2022/08/28 03:59:35;;;;;;;12.57;4.35;;;17.90;99.90;;;;;;5051769;28;20402;-61
2022/08/28 04:02:01;;;;;;;12.75;4.50;;;17.80;99.90;;;;;;5051834;28;20031;-61
2022/08/28 04:04:26;;;;;;;13.65;4.55;;;17.80;99.90;;;;;;5051715;28;20654;-61
2022/08/28 04:06:52;;;;;;;10.93;4.28;;;17.80;99.90;;;;;;5052006;28;20063;-61
2022/08/28 04:09:18;;;;;;;11.07;4.50;;;17.70;99.90;;;;;;5052097;28;20036;-61
2022/08/28 04:11:43;;;;;;;13.05;3.95;;;17.60;99.90;;;;;;5051613;28;20025;-61
2022/08/28 04:14:10;;;;;;;11.27;3.83;;;17.60;99.90;;;;;;5051795;28;20029;-61
2022/08/28 04:16:37;;;;;;;13.57;3.97;;;17.60;99.90;;;;;;5051413;28;20124;-61
2022/08/28 04:19:02;;;;;;;12.40;4.88;;;17.50;99.90;;;;;;5051738;28;20039;-61
2022/08/28 04:21:28;;;;;;;13.02;3.90;;;17.50;99.90;;;;;;5050247;28;20029;-61
2022/08/28 04:23:54;;;;;;;11.07;4.28;;;17.60;99.90;;;;;;5051279;28;20025;-61
2022/08/28 04:26:24;;;;;;;15.02;3.80;;;17.60;99.90;;;;;;5051699;28;20024;-61
2022/08/28 04:28:50;;;;;;;12.27;3.40;;;17.60;99.90;;;;;;5051715;28;20033;-61
2022/08/28 04:31:16;;;;;;;14.60;4.55;;;17.50;99.90;;;;;;5051215;28;20025;-61
2022/08/28 04:33:42;;;;;;;10.27;3.40;;;17.50;99.90;;;;;;5050807;28;20029;-61
2022/08/28 04:36:14;;;;;;;12.90;3.95;;;17.50;99.90;;;;;;5051312;28;20036;-61
2022/08/28 04:38:41;;;;;;;18.33;4.70;;;17.50;99.90;;;;;;5051318;28;20387;-62
2022/08/28 04:41:09;;;;;;;18.23;3.78;;;17.50;99.90;;;;;;5051190;28;20528;-65
2022/08/28 04:43:35;;;;;;;13.68;3.88;;;17.50;99.90;;;;;;5049884;28;20044;-61
2022/08/28 04:46:11;;;;;;;10.48;3.60;;;17.40;99.90;;;;;;5050793;28;20102;-61
2022/08/28 04:48:37;;;;;;;13.80;3.70;;;17.40;99.90;;;;;;5051215;28;20025;-61
2022/08/28 04:51:08;;;;;;;12.07;3.92;;;17.40;99.90;;;;;;5050912;28;20413;-61
2022/08/28 04:53:35;;;;;;;11.82;3.47;;;17.30;99.90;;;;;;5050952;28;20537;-61
2022/08/28 04:56:03;;;;;;;8.73;3.63;;;17.30;99.90;;;;;;5050716;28;20154;-60
2022/08/28 04:58:29;;;;;;;10.63;3.25;;;17.30;99.90;;;;;;5051027;28;20032;-61
2022/08/28 05:00:55;;;;;;;13.95;4.07;;;17.30;99.90;;;;;;5050915;28;20041;-61
2022/08/28 05:03:21;;;;;;;11.90;3.95;;;17.30;99.90;;;;;;5050712;28;20059;-63
2022/08/28 05:05:50;;;;;;;16.30;3.58;;;17.40;99.90;;;;;;5050722;28;20036;-61
2022/08/28 05:08:18;;;;;;;9.68;3.95;;;17.30;99.90;;;;;;5051181;28;20094;-61
2022/08/28 05:10:45;;;;;;;17.45;4.18;;;17.30;99.90;;;;;;5050846;28;20029;-61
2022/08/28 05:13:14;;;;;;;11.65;3.90;;;17.30;99.90;;;;;;5050815;28;20108;-61
2022/08/28 05:15:41;;;;;;;10.57;3.78;;;17.40;99.90;;;;;;5050797;28;20097;-60
2022/08/28 05:18:07;;;;;;;14.07;4.20;;;17.30;99.90;;;;;;5050866;28;20504;-61
2022/08/28 05:20:37;;;;;;;10.88;3.97;;;17.40;99.90;;;;;;5050510;28;20103;-61
2022/08/28 05:23:05;;;;;;;12.00;3.42;;;17.40;99.90;;;;;;5050991;28;20032;-61
2022/08/28 05:25:38;;;;;;;9.20;3.28;;;17.40;99.90;;;;;;5050803;28;20474;-61
2022/08/28 05:28:05;;;;;;;12.30;3.40;;;17.30;99.90;;;;;;5051131;28;20052;-61
2022/08/28 05:30:31;;;;;;;14.10;3.90;;;17.30;99.90;;;;;;5050369;28;20043;-61
2022/08/28 05:32:58;;;;;;;9.23;3.30;;;17.30;99.90;;;;;;5050530;28;20029;-61
2022/08/28 05:35:25;;;;;;;14.73;3.90;;;17.30;99.90;;;;;;5050655;28;20535;-60
2022/08/28 05:37:51;;;;;;;15.65;4.22;;;17.30;99.90;;;;;;5050517;28;20048;-60
2022/08/28 05:40:19;;;;;;;11.25;3.22;;;17.40;99.90;;;;;;5050496;28;20021;-61
2022/08/28 05:42:45;;;;;;;8.73;3.20;;;17.40;99.90;;;;;;5049272;28;20103;-61
2022/08/28 05:45:10;;;;;;;11.73;3.45;;;17.50;99.90;;;;;;5053230;28;20494;-61
2022/08/28 05:47:36;;;;;;;9.80;3.33;;;17.50;99.90;;;;;;5054047;28;20036;-61
2022/08/28 05:50:02;;;;;;;14.23;3.50;;;17.50;99.90;;;;;;5054360;28;20025;-60
2022/08/28 05:52:28;;;;;;;12.43;3.30;;;17.60;99.90;;;;;;5054397;28;20039;-64
2022/08/28 05:54:54;;;;;;;8.18;3.38;;;17.60;99.90;;;;;;5053853;28;20029;-61
2022/08/28 05:57:20;;;;;;;9.18;3.85;;;17.60;99.90;;;;;;5054200;28;20037;-61
2022/08/28 05:59:45;;;;;;;14.10;3.60;;;17.70;99.90;;;;;;5053917;28;20045;-60
2022/08/28 06:02:11;;;;;;;12.07;3.05;;;17.80;99.90;;;;;;5053837;28;20025;-62
2022/08/28 06:04:39;;;;;;;11.07;3.28;;;17.80;99.90;;;;;;5054256;28;20017;-61
2022/08/28 06:07:05;;;;;;;10.82;3.33;;;17.80;99.90;;;;;;5053925;28;20605;-60
2022/08/28 06:09:31;;;;;;;11.27;3.35;;;17.80;99.90;;;;;;5054010;28;20107;-61
2022/08/28 06:11:59;;;;;;;10.85;3.38;;;17.90;99.90;;;;;;5053930;28;20033;-61
2022/08/28 06:14:26;;;;;;;14.70;3.17;;;18.00;99.90;;;;;;5053860;28;20024;-61
2022/08/28 06:16:53;;;;;;;14.75;3.30;;;18.00;99.90;;;;;;5053601;28;20029;-61
2022/08/28 06:19:21;;;;;;;9.85;3.00;;;18.10;99.90;;;;;;5053759;28;20508;-61
2022/08/28 06:21:50;;;;;;;9.27;3.35;;;18.20;99.90;;;;;;5053708;28;20032;-61
2022/08/28 06:24:16;;;;;;;14.65;3.00;;;18.30;99.90;;;;;;5053493;28;20021;-61
2022/08/28 06:26:42;;;;;;;12.55;2.65;;;18.30;99.90;;;;;;5053575;28;20056;-61
2022/08/28 06:29:11;;;;;;;12.80;2.78;;;18.20;99.90;;;;;;5053473;28;20025;-62
2022/08/28 06:31:37;;;;;;;12.38;2.85;;;18.30;99.90;;;;;;5052148;28;20529;-61
2022/08/28 06:34:04;;;;;;;7.80;2.72;;;18.40;99.90;;;;;;5053710;28;20025;-61
2022/08/28 06:36:33;;;;;;;10.65;2.75;;;18.40;99.90;;;;;;5053123;28;20025;-61
2022/08/28 06:39:00;;;;;;;9.85;2.92;;;18.40;99.90;;;;;;5053714;28;20567;-59
2022/08/28 06:41:26;;;;;;;9.80;2.80;;;18.30;99.90;;;;;;5053576;28;20371;-61
2022/08/28 06:43:53;;;;;;;13.25;2.90;;;18.10;99.90;;;;;;5052887;28;20040;-60
2022/08/28 06:46:19;;;;;;;9.13;3.08;;;18.00;99.90;;;;;;5053099;28;20033;-60
2022/08/28 06:48:44;;;;;;;13.38;3.10;;;18.00;99.90;;;;;;5051963;28;20490;-61
2022/08/28 06:51:12;;;;;;;8.65;3.00;;;17.90;99.90;;;;;;5052907;28;20040;-61
2022/08/28 06:53:39;;;;;;;14.05;3.33;;;17.90;99.90;;;;;;5052961;28;20029;-61
2022/08/28 06:56:08;;;;;;;13.13;2.88;;;18.00;99.90;;;;;;5052370;28;20025;-61
2022/08/28 06:58:39;;;;;;;14.30;2.72;;;18.10;99.90;;;;;;5051642;28;20029;-61
2022/08/28 07:01:16;;;;;;;13.50;2.90;;;18.00;99.90;;;;;;5053118;28;20052;-60
2022/08/28 07:03:43;;;;;;;11.77;2.38;;;18.10;99.90;;;;;;5052960;28;20025;-60
2022/08/28 07:06:11;;;;;;;8.60;2.83;;;18.10;99.90;;;;;;5052741;28;20059;-60
2022/08/28 07:08:37;;;;;;;12.90;2.97;;;18.10;99.90;;;;;;5051475;28;20064;-60
2022/08/28 07:11:14;;;;;;;9.82;2.30;;;18.20;99.90;;;;;;5052512;28;20032;-60
2022/08/28 07:13:44;;;;;;;12.02;2.97;;;18.30;99.90;;;;;;5052633;28;20064;-60
2022/08/28 07:16:11;;;;;;;9.57;2.88;;;18.40;99.90;;;;;;5052619;28;20402;-59
2022/08/28 07:18:38;;;;;;;10.02;2.75;;;18.40;99.90;;;;;;5052621;28;20033;-60
2022/08/28 07:21:04;;;;;;;8.15;2.70;;;18.40;99.90;;;;;;5052599;28;20413;-59
2022/08/28 07:23:31;;;;;;;10.43;2.60;;;18.50;99.90;;;;;;5052768;28;20074;-60
2022/08/28 07:25:57;;;;;;;12.00;2.72;;;18.70;99.90;;;;;;5052188;28;20075;-60
2022/08/28 07:28:23;;;;;;;10.90;2.55;;;19.10;99.90;;;;;;5052558;28;20033;-61
2022/08/28 07:31:00;;;;;;;11.30;3.20;;;20.10;99.90;;;;;;5052192;28;20025;-61
2022/08/28 07:33:27;;;;;;;8.32;2.63;;;21.20;99.90;;;;;;5052559;28;20028;-61
2022/08/28 07:35:53;;;;;;;9.60;2.53;;;22.00;99.90;;;;;;5052079;28;20039;-59
2022/08/28 07:38:20;;;;;;;12.18;2.65;;;22.60;99.90;;;;;;5052313;28;20036;-60
2022/08/28 07:40:46;;;;;;;14.27;2.78;;;22.90;99.90;;;;;;5052295;28;20161;-61
2022/08/28 07:45:58;;;;;;;8.90;2.67;;;22.80;99.90;;;;;;5052179;28;20079;-62
2022/08/28 07:48:24;;;;;;;18.45;3.25;;;22.80;99.90;;;;;;5052088;28;20120;-61
2022/08/28 07:50:49;;;;;;;8.95;2.53;;;22.50;99.90;;;;;;5051919;28;20709;-61
2022/08/28 07:53:15;;;;;;;11.90;2.50;;;23.20;99.90;;;;;;5051771;28;20102;-62
2022/08/28 07:55:41;;;;;;;10.15;2.47;;;23.90;99.90;;;;;;5051931;28;20057;-62
2022/08/28 07:58:06;;;;;;;8.93;2.33;;;24.40;99.90;;;;;;5051915;28;20024;-63
2022/08/28 08:00:32;;;;;;;9.77;2.47;;;24.80;99.90;;;;;;5051313;28;20040;-63
2022/08/28 08:02:57;;;;;;;10.88;2.67;;;25.50;99.40;;;;;;5051648;28;20086;-62
2022/08/28 08:05:24;;;;;;;7.88;2.20;;;25.50;98.90;;;;;;5051612;28;20021;-62
2022/08/28 08:07:51;;;;;;;7.60;2.40;;;25.20;98.90;;;;;;5051009;28;20674;-63
2022/08/28 08:10:17;;;;;;;10.52;2.17;;;25.10;99.10;;;;;;5051939;28;20033;-62
2022/08/28 08:12:43;;;;;;;8.23;2.33;;;25.40;98.30;;;;;;5051416;28;20592;-62
2022/08/28 08:15:10;;;;;;;8.50;2.33;;;25.80;97.60;;;;;;5051683;28;20426;-62
2022/08/28 08:17:36;;;;;;;9.90;2.42;;;25.90;97.00;;;;;;5051272;28;20115;-63
2022/08/28 08:20:02;;;;;;;9.98;2.45;;;26.00;96.40;;;;;;5051586;28;20131;-63
2022/08/28 08:22:28;;;;;;;9.18;2.47;;;26.20;95.50;;;;;;5051236;28;20494;-63
2022/08/28 08:24:54;;;;;;;15.20;2.75;;;26.10;95.20;;;;;;5051073;28;20052;-63
2022/08/28 08:27:20;;;;;;;7.45;2.50;;;25.80;95.80;;;;;;5051305;28;20114;-62
2022/08/28 08:29:47;;;;;;;6.80;2.58;;;25.40;96.30;;;;;;5051377;28;20025;-60
2022/08/28 08:32:14;;;;;;;10.93;2.65;;;25.60;96.00;;;;;;5051434;28;20077;-62
2022/08/28 08:34:42;;;;;;;8.00;2.40;;;25.60;96.00;;;;;;5051058;28;20110;-63
2022/08/28 08:37:10;;;;;;;4.85;2.40;;;25.80;96.20;;;;;;5051049;28;20037;-63
2022/08/28 08:39:36;;;;;;;8.35;2.50;;;25.80;95.40;;;;;;5051083;28;20065;-60
2022/08/28 08:42:06;;;;;;;6.82;2.33;;;26.20;94.50;;;;;;5051337;28;20049;-61
2022/08/28 08:44:43;;;;;;;9.07;2.33;;;26.20;94.20;;;;;;5050860;28;20028;-60
2022/08/28 08:47:46;;;;;;;12.45;3.20;;;26.20;93.90;;;;;;5050802;28;20078;-60
2022/08/28 08:50:28;;;;;;;6.85;2.13;;;25.90;94.10;;;;;;5051291;28;20429;-61
2022/08/28 08:53:31;;;;;;;5.47;2.20;;;26.10;93.40;;;;;;5049401;28;20033;-62
2022/08/28 08:55:57;;;;;;;10.40;2.55;;;26.40;92.50;;;;;;5050890;28;20021;-62
2022/08/28 08:58:28;;;;;;;8.70;2.70;;;25.90;93.50;;;;;;5051063;28;20099;-62
2022/08/28 09:01:15;;;;;;;10.37;2.53;;;25.70;94.10;;;;;;5050601;28;20043;-63
2022/08/28 09:03:48;;;;;;;7.18;2.53;;;26.10;94.20;;;;;;5051012;28;20533;-63
2022/08/28 09:06:38;;;;;;;6.97;2.47;;;26.60;92.50;;;;;;5049540;28;20060;-63
2022/08/28 09:09:13;;;;;;;8.50;2.47;;;26.40;91.90;;;;;;5050736;28;20108;-62
2022/08/28 09:11:54;;;;;;;5.80;2.25;;;26.10;92.50;;;;;;5050459;28;20389;-63
2022/08/28 09:15:03;;;;;;;8.18;2.60;;;25.90;92.60;;;;;;5049118;28;20029;-62
2022/08/28 09:17:38;;;;;;;9.23;2.60;;;25.50;92.20;;;;;;5050676;28;20033;-60
2022/08/28 09:20:08;;;;;;;7.18;2.00;;;25.40;92.80;;;;;;5054446;28;20033;-61
2022/08/28 09:22:34;;;;;;;10.45;2.40;;;25.80;93.20;;;;;;5053528;28;20025;-61
2022/08/28 09:25:00;;;;;;;7.55;2.40;;;26.70;92.10;;;;;;5054890;28;20083;-61
2022/08/28 09:27:31;;;;;;;6.15;2.10;;;26.90;91.40;;;;;;5054629;28;20482;-61
2022/08/28 09:30:06;;;;;;;10.57;3.07;;;27.20;90.70;;;;;;5055323;28;20033;-60
2022/08/28 09:32:40;;;;;;;6.93;2.20;;;27.40;88.60;;;;;;5054608;28;20747;-62
2022/08/28 09:35:05;;;;;;;6.38;2.08;;;27.60;87.00;;;;;;5054893;28;20028;-63
2022/08/28 09:37:33;;;;;;;7.70;2.55;;;27.60;87.90;;;;;;5054500;28;20367;-63
2022/08/28 09:40:19;;;;;;;9.27;2.70;;;28.30;84.80;;;;;;5054477;28;20032;-63
2022/08/28 09:46:18;;;;;;;5.70;2.08;;;27.80;84.80;;;;;;5054137;28;20032;-63
2022/08/28 09:48:46;;;;;;;8.50;2.58;;;27.50;85.10;;;;;;5050393;28;20762;-63
2022/08/28 09:51:26;;;;;;;4.97;2.17;;;27.90;84.90;;;;;;5054137;28;20021;-64
2022/08/28 09:53:53;;;;;;;4.95;1.98;;;28.20;83.70;;;;;;5054201;28;20393;-63
2022/08/28 09:56:32;;;;;;;4.60;2.13;;;28.20;81.50;;;;;;5054221;28;20087;-63
2022/08/28 09:59:00;;;;;;;4.68;2.10;;;27.80;82.70;;;;;;5054677;28;20439;-63
2022/08/28 10:01:48;;;;;;;5.07;2.08;;;27.30;83.50;;;;;;5054171;28;20437;-63
2022/08/28 10:04:38;;;;;;;7.65;2.50;;;27.40;84.60;;;;;;5054374;28;20178;-63
2022/08/28 10:07:46;;;;;;;3.55;1.92;;;27.60;84.40;;;;;;5053711;28;20027;-63
2022/08/28 10:10:52;;;;;;;6.15;2.10;;;27.90;81.80;;;;;;5053891;28;20434;-63
2022/08/28 10:13:32;;;;;;;7.57;2.13;;;28.40;80.60;;;;;;5047914;28;20045;-63
2022/08/28 10:16:19;;;;;;;5.63;2.20;;;28.10;79.50;;;;;;5053550;28;20044;-63
2022/08/28 10:19:08;;;;;;;8.63;2.67;;;27.40;81.60;;;;;;5053756;28;20025;-63
2022/08/28 10:21:47;;;;;;;11.18;2.65;;;27.00;85.30;;;;;;5032037;28;20037;-63
2022/08/28 10:24:35;;;;;;;7.88;2.53;;;27.00;84.30;;;;;;5053597;28;20052;-63
2022/08/28 10:27:26;;;;;;;9.00;2.33;;;26.60;86.00;;;;;;5053431;28;20422;-62
2022/08/28 10:30:03;;;;;;;7.03;1.83;;;26.60;87.10;;;;;;5052874;28;20139;-63
2022/08/28 10:32:56;;;;;;;7.13;2.25;;;27.20;85.80;;;;;;5053593;28;20048;-64
2022/08/28 10:35:40;;;;;;;8.43;2.13;;;27.90;82.50;;;;;;5053379;28;20478;-64
2022/08/28 10:38:09;;;;;;;6.97;2.22;;;28.50;80.50;;;;;;5053479;28;20037;-64
2022/08/28 10:41:08;;;;;;;4.20;2.10;;;28.60;80.10;;;;;;5052976;28;20497;-64
2022/08/28 10:43:36;;;;;;;5.30;1.92;;;28.60;78.50;;;;;;5053415;28;20017;-64
2022/08/28 10:46:13;;;;;;;8.70;2.20;;;29.20;75.60;;;;;;5053032;28;20032;-64
2022/08/28 10:48:46;;;;;;;5.45;1.90;;;28.70;76.60;;;;;;5053613;28;20021;-63
2022/08/28 10:51:19;;;;;;;7.72;1.90;;;28.90;76.90;;;;;;5051859;28;20063;-63
2022/08/28 10:54:07;;;;;;;10.48;2.35;;;28.80;76.30;;;;;;5053442;28;20033;-63
2022/08/28 10:56:39;;;;;;;6.18;1.95;;;28.40;76.70;;;;;;5052778;28;20071;-63
2022/08/28 10:59:04;;;;;;;;;;;28.70;76.20;;;;;;5053392;28;20128;-63
2022/08/28 11:01:34;;;;;;;5.28;2.03;;;28.80;76.10;;;;;;5052957;28;20006;-63
2022/08/28 11:04:04;;;;;;;8.88;2.13;;;29.30;75.20;;;;;;5053102;28;20043;-64
2022/08/28 11:06:40;;;;;;;5.15;1.65;;;29.40;74.80;;;;;;5051382;28;20040;-64
2022/08/28 11:09:25;;;;;;;6.80;2.00;;;29.50;74.20;;;;;;5053037;28;20108;-63
2022/08/28 11:12:14;;;;;;;9.82;1.70;;;29.40;74.50;;;;;;5052753;28;20430;-64
2022/08/28 11:14:41;;;;;;;7.38;2.50;;;29.40;72.30;;;;;;5045984;28;20095;-64
2022/08/28 11:17:29;;;;;;;4.65;1.77;;;28.40;75.40;;;;;;5052464;28;20478;-64
2022/08/28 11:20:15;;;;;;;12.00;2.20;;;28.30;75.90;;;;;;5052555;28;20080;-64
2022/08/28 11:22:55;;;;;;;4.68;1.63;;;29.00;75.40;;;;;;5052335;28;20107;-63
2022/08/28 11:25:45;;;;;;;7.57;2.10;;;28.90;73.80;;;;;;5051093;28;20040;-64
2022/08/28 11:28:11;;;;;;;7.13;1.63;;;29.00;73.70;;;;;;5052124;28;20045;-64
2022/08/28 11:30:37;;;;;;;5.03;1.92;;;28.90;73.70;;;;;;5052107;28;20390;-63
2022/08/28 11:33:27;;;;;;;6.68;1.95;;;28.70;73.80;;;;;;5052361;28;20528;-64
2022/08/28 11:35:53;;;;;;;9.13;1.90;;;28.60;75.30;;;;;;5052116;28;20404;-64
2022/08/28 11:39:22;;;;;;;7.25;1.60;;;28.10;77.10;;;;;;5052411;28;20025;-64
2022/08/28 11:42:09;;;;;;;3.88;1.65;;;29.00;75.90;;;;;;5004980;28;20555;-64
2022/08/28 11:44:44;;;;;;;4.85;1.70;;;29.40;73.70;;;;;;5009842;28;20053;-64
2022/08/28 11:47:47;;;;;;;3.70;1.60;;;30.20;71.30;;;;;;5045567;28;20086;-63
2022/08/28 11:50:51;;;;;;;5.20;1.60;;;31.10;70.30;;;;;;5030470;28;20036;-63
2022/08/28 11:53:38;;;;;;;6.65;1.65;;;31.50;68.00;;;;;;5051600;28;20398;-64
2022/08/28 11:56:42;;;;;;;6.05;1.95;;;30.80;68.30;;;;;;5051931;28;20390;-64
2022/08/28 11:59:32;;;;;;;6.47;1.77;;;30.40;68.40;;;;;;5030194;28;20041;-65
2022/08/28 12:02:32;;;;;;;3.78;1.70;;;30.90;68.40;;;;;;5052035;28;20060;-64
2022/08/28 12:04:58;;;;;;;4.25;1.70;;;31.20;67.40;;;;;;5051754;28;20036;-62
2022/08/28 12:07:33;;;;;;;6.07;1.80;;;31.60;66.30;;;;;;5052105;28;20021;-62
2022/08/28 12:10:00;;;;;;;5.70;1.70;;;32.40;65.00;;;;;;5052408;28;20082;-62
2022/08/28 12:12:46;;;;;;;5.78;1.80;;;30.70;66.60;;;;;;5052065;28;20090;-62
2022/08/28 12:15:27;;;;;;;11.77;2.42;;;29.80;69.10;;;;;;5044435;28;20409;-65
2022/08/28 12:18:01;;;;;;;5.65;1.80;;;29.60;70.10;;;;;;5051510;28;20029;-65
2022/08/28 12:20:32;;;;;;;8.18;1.40;;;30.90;68.80;;;;;;5051543;28;20032;-62
2022/08/28 12:23:01;;;;;;;8.20;1.60;;;31.50;66.10;;;;;;5051534;28;20075;-64
2022/08/28 12:25:40;;;;;;;6.10;1.65;;;31.20;65.30;;;;;;5051068;28;20025;-64
2022/08/28 12:28:31;;;;;;;5.63;1.45;;;31.20;63.80;;;;;;5051738;28;20036;-64
2022/08/28 12:31:03;;;;;;;2.97;1.20;;;31.50;63.10;;;;;;5051351;28;20083;-64
2022/08/28 12:33:58;;;;;;;8.52;1.65;;;31.30;63.40;;;;;;5051310;28;20114;-64
2022/08/28 12:36:33;;;;;;;6.90;1.75;;;31.30;63.40;;;;;;5051290;28;20033;-64
2022/08/28 12:38:59;;;;;;;3.40;1.20;;;31.00;64.10;;;;;;5051442;28;20056;-64
2022/08/28 12:41:26;;;;;;;3.25;1.17;;;31.50;63.20;;;;;;5051105;28;20155;-65
2022/08/28 12:43:55;;;;;;;3.85;1.50;;;31.90;62.20;;;;;;5051014;28;20072;-65
2022/08/28 12:46:33;;;;;;;5.80;1.73;;;31.80;62.20;;;;;;5051137;28;20104;-65
2022/08/28 12:49:02;;;;;;;8.27;1.75;;;31.50;63.00;;;;;;5051454;28;20090;-64
2022/08/28 12:51:40;;;;;;;6.93;1.73;;;30.90;62.80;;;;;;5051319;28;20021;-64
2022/08/28 12:54:07;;;;;;;5.78;1.55;;;30.70;64.10;;;;;;5050640;28;20079;-63
2022/08/28 12:56:36;;;;;;;9.63;1.80;;;30.80;62.10;;;;;;5050961;28;20031;-64
2022/08/28 12:59:24;;;;;;;7.35;1.60;;;30.30;63.90;;;;;;5051356;28;20444;-64
2022/08/28 13:01:51;;;;;;;3.08;1.23;;;30.80;63.30;;;;;;5051349;28;20113;-64
2022/08/28 13:04:36;;;;;;;3.58;1.13;;;31.10;62.40;;;;;;5049777;28;20026;-64
2022/08/28 13:07:14;;;;;;;3.50;1.10;;;31.00;61.90;;;;;;5051028;28;20025;-64
2022/08/28 13:10:04;;;;;;;3.22;1.27;;;30.20;63.10;;;;;;5051096;28;20040;-64
2022/08/28 13:12:40;;;;;;;6.28;1.85;;;30.50;63.60;;;;;;5051175;28;20036;-64